Terminal Aerodrome Forecast
Issued by NWS

Home | Current Version | Previous Version | Text Only | Print | Product List | Glossary On
Versions: 1 2 3 4 5 6 7 8 9 10 11 12 13
000
FTAK31 PAFA 232038 AAA
TAFAUN
TAF AMD
PAUN 232038Z 2321/2418 09020G28KT P6SM SCT100 BKN200
     FM240700 08018G26KT 4SM -SN BLSN BKN050 OVC100=

USA.gov is the U.S. government's official web portal to all federal, state and local government web resources and services.